Terminal Aerodrome Forecast
Issued by NWS

Home | Current Version | Previous Version | Text Only | Print | Product List | Glossary On
Versions: 1 2 3 4 5 6 7 8 9 10 11 12 13 14 15 16
000
FTUS42 KTBW 200526
TAFLAL
TAF
KLAL 200526Z 2006/2106 10009KT P6SM FEW020 SCT070
      TEMPO 2010/2014 5SM BR SCT008
     FM201500 12011KT P6SM SCT020 SCT080
     FM202200 13009KT P6SM SCT040 BKN250
     FM210300 10007KT P6SM SCT250
      AMD NOT SKED TIL 201200=

USA.gov is the U.S. government's official web portal to all federal, state and local government web resources and services.